sensor_id;sensor_type;location;lat;lon;timestamp;P1;durP1;ratioP1;P2;durP2;ratioP2
67896;SDS011;54698;48.428;9.964;2022-12-05T00:01:58;35.93;;;9.27;;
67896;SDS011;54698;48.428;9.964;2022-12-05T00:04:25;22.10;;;7.33;;
67896;SDS011;54698;48.428;9.964;2022-12-05T00:06:51;28.07;;;7.80;;
67896;SDS011;54698;48.428;9.964;2022-12-05T00:09:17;30.30;;;8.37;;
67896;SDS011;54698;48.428;9.964;2022-12-05T00:11:43;38.80;;;10.17;;
67896;SDS011;54698;48.428;9.964;2022-12-05T00:14:10;24.53;;;7.40;;
67896;SDS011;54698;48.428;9.964;2022-12-05T00:16:38;28.93;;;8.70;;
67896;SDS011;54698;48.428;9.964;2022-12-05T00:19:06;32.03;;;8.60;;
67896;SDS011;54698;48.428;9.964;2022-12-05T00:21:36;30.77;;;9.20;;
67896;SDS011;54698;48.428;9.964;2022-12-05T00:24:02;28.17;;;7.50;;
67896;SDS011;54698;48.428;9.964;2022-12-05T00:26:30;24.40;;;8.13;;
67896;SDS011;54698;48.428;9.964;2022-12-05T00:28:57;22.17;;;9.67;;
67896;SDS011;54698;48.428;9.964;2022-12-05T00:31:24;23.77;;;8.73;;
67896;SDS011;54698;48.428;9.964;2022-12-05T00:33:51;28.40;;;9.87;;
67896;SDS011;54698;48.428;9.964;2022-12-05T00:36:20;30.83;;;8.73;;
67896;SDS011;54698;48.428;9.964;2022-12-05T00:38:49;31.57;;;10.17;;
67896;SDS011;54698;48.428;9.964;2022-12-05T00:41:17;26.43;;;11.03;;
67896;SDS011;54698;48.428;9.964;2022-12-05T00:43:45;30.47;;;8.57;;
67896;SDS011;54698;48.428;9.964;2022-12-05T00:46:12;27.27;;;9.20;;
67896;SDS011;54698;48.428;9.964;2022-12-05T00:48:39;27.27;;;9.87;;
67896;SDS011;54698;48.428;9.964;2022-12-05T00:51:08;21.50;;;8.77;;
67896;SDS011;54698;48.428;9.964;2022-12-05T00:53:35;25.13;;;9.07;;
67896;SDS011;54698;48.428;9.964;2022-12-05T00:56:03;24.40;;;8.70;;
67896;SDS011;54698;48.428;9.964;2022-12-05T00:58:32;31.60;;;8.97;;
67896;SDS011;54698;48.428;9.964;2022-12-05T01:01:03;23.63;;;7.97;;
67896;SDS011;54698;48.428;9.964;2022-12-05T01:03:30;30.58;;;10.43;;
67896;SDS011;54698;48.428;9.964;2022-12-05T01:05:57;32.13;;;8.43;;
67896;SDS011;54698;48.428;9.964;2022-12-05T01:08:23;37.07;;;10.73;;
67896;SDS011;54698;48.428;9.964;2022-12-05T01:10:51;32.80;;;9.90;;
67896;SDS011;54698;48.428;9.964;2022-12-05T01:13:19;28.23;;;11.30;;
67896;SDS011;54698;48.428;9.964;2022-12-05T01:15:45;29.43;;;10.50;;
67896;SDS011;54698;48.428;9.964;2022-12-05T01:18:10;34.90;;;10.07;;
67896;SDS011;54698;48.428;9.964;2022-12-05T01:20:37;25.83;;;9.40;;
67896;SDS011;54698;48.428;9.964;2022-12-05T01:23:04;40.77;;;11.57;;
67896;SDS011;54698;48.428;9.964;2022-12-05T01:25:29;38.70;;;11.03;;
67896;SDS011;54698;48.428;9.964;2022-12-05T01:27:55;32.53;;;12.37;;
67896;SDS011;54698;48.428;9.964;2022-12-05T01:30:22;31.60;;;11.20;;
67896;SDS011;54698;48.428;9.964;2022-12-05T01:32:48;33.03;;;10.57;;
67896;SDS011;54698;48.428;9.964;2022-12-05T01:35:14;38.70;;;10.70;;
67896;SDS011;54698;48.428;9.964;2022-12-05T01:37:40;36.17;;;11.13;;
67896;SDS011;54698;48.428;9.964;2022-12-05T01:40:06;39.40;;;10.97;;
67896;SDS011;54698;48.428;9.964;2022-12-05T01:42:33;28.67;;;9.77;;
67896;SDS011;54698;48.428;9.964;2022-12-05T01:45:05;27.37;;;9.03;;
67896;SDS011;54698;48.428;9.964;2022-12-05T01:47:37;37.63;;;10.10;;
67896;SDS011;54698;48.428;9.964;2022-12-05T01:50:04;34.30;;;10.03;;
67896;SDS011;54698;48.428;9.964;2022-12-05T01:52:31;35.10;;;11.00;;
67896;SDS011;54698;48.428;9.964;2022-12-05T01:54:59;33.67;;;8.53;;
67896;SDS011;54698;48.428;9.964;2022-12-05T01:57:29;32.53;;;10.33;;
67896;SDS011;54698;48.428;9.964;2022-12-05T01:59:57;29.53;;;9.60;;
67896;SDS011;54698;48.428;9.964;2022-12-05T02:02:27;27.87;;;8.40;;
67896;SDS011;54698;48.428;9.964;2022-12-05T02:04:59;24.37;;;11.33;;
67896;SDS011;54698;48.428;9.964;2022-12-05T02:07:28;24.80;;;8.73;;
67896;SDS011;54698;48.428;9.964;2022-12-05T02:09:56;26.00;;;9.60;;
67896;SDS011;54698;48.428;9.964;2022-12-05T02:12:22;26.17;;;9.53;;
67896;SDS011;54698;48.428;9.964;2022-12-05T02:14:50;25.17;;;9.43;;
67896;SDS011;54698;48.428;9.964;2022-12-05T02:17:36;28.37;;;8.30;;
67896;SDS011;54698;48.428;9.964;2022-12-05T02:20:23;31.77;;;9.57;;
67896;SDS011;54698;48.428;9.964;2022-12-05T02:29:07;29.00;;;9.02;;
67896;SDS011;54698;48.428;9.964;2022-12-05T02:31:57;32.17;;;9.23;;
67896;SDS011;54698;48.428;9.964;2022-12-05T02:34:33;27.20;;;9.07;;
67896;SDS011;54698;48.428;9.964;2022-12-05T02:37:08;28.40;;;8.73;;
67896;SDS011;54698;48.428;9.964;2022-12-05T02:42:11;21.80;;;7.63;;
67896;SDS011;54698;48.428;9.964;2022-12-05T02:44:43;18.63;;;7.85;;
67896;SDS011;54698;48.428;9.964;2022-12-05T02:47:14;28.80;;;9.13;;
67896;SDS011;54698;48.428;9.964;2022-12-05T02:49:43;27.93;;;9.47;;
67896;SDS011;54698;48.428;9.964;2022-12-05T02:52:10;30.13;;;9.73;;
67896;SDS011;54698;48.428;9.964;2022-12-05T02:54:39;29.53;;;9.77;;
67896;SDS011;54698;48.428;9.964;2022-12-05T02:57:07;31.13;;;12.20;;
67896;SDS011;54698;48.428;9.964;2022-12-05T02:59:35;28.10;;;8.60;;
67896;SDS011;54698;48.428;9.964;2022-12-05T03:02:02;28.10;;;8.57;;
67896;SDS011;54698;48.428;9.964;2022-12-05T03:04:30;24.50;;;8.93;;
67896;SDS011;54698;48.428;9.964;2022-12-05T03:06:56;27.83;;;9.87;;
67896;SDS011;54698;48.428;9.964;2022-12-05T03:09:26;30.40;;;10.13;;
67896;SDS011;54698;48.428;9.964;2022-12-05T03:11:58;26.70;;;8.30;;
67896;SDS011;54698;48.428;9.964;2022-12-05T03:14:35;24.10;;;8.60;;
67896;SDS011;54698;48.428;9.964;2022-12-05T03:17:06;28.27;;;10.07;;
67896;SDS011;54698;48.428;9.964;2022-12-05T03:19:41;26.10;;;9.77;;
67896;SDS011;54698;48.428;9.964;2022-12-05T03:22:15;22.87;;;8.70;;
67896;SDS011;54698;48.428;9.964;2022-12-05T03:24:48;27.23;;;9.00;;
67896;SDS011;54698;48.428;9.964;2022-12-05T03:27:14;26.63;;;9.23;;
67896;SDS011;54698;48.428;9.964;2022-12-05T03:29:50;22.97;;;8.67;;
67896;SDS011;54698;48.428;9.964;2022-12-05T03:32:21;23.97;;;9.83;;
67896;SDS011;54698;48.428;9.964;2022-12-05T03:34:58;28.33;;;9.10;;
67896;SDS011;54698;48.428;9.964;2022-12-05T03:37:34;26.43;;;9.97;;
67896;SDS011;54698;48.428;9.964;2022-12-05T03:40:11;27.80;;;8.70;;
67896;SDS011;54698;48.428;9.964;2022-12-05T03:42:49;26.37;;;10.30;;
67896;SDS011;54698;48.428;9.964;2022-12-05T03:45:21;28.37;;;9.67;;
67896;SDS011;54698;48.428;9.964;2022-12-05T03:47:55;28.00;;;9.33;;
67896;SDS011;54698;48.428;9.964;2022-12-05T03:50:31;29.27;;;9.57;;
67896;SDS011;54698;48.428;9.964;2022-12-05T03:53:02;21.70;;;8.30;;
67896;SDS011;54698;48.428;9.964;2022-12-05T03:55:32;31.90;;;9.20;;
67896;SDS011;54698;48.428;9.964;2022-12-05T03:58:01;29.20;;;10.07;;
67896;SDS011;54698;48.428;9.964;2022-12-05T04:00:33;25.42;;;10.60;;
67896;SDS011;54698;48.428;9.964;2022-12-05T04:03:04;27.87;;;10.87;;
67896;SDS011;54698;48.428;9.964;2022-12-05T04:05:37;26.70;;;10.03;;
67896;SDS011;54698;48.428;9.964;2022-12-05T04:08:07;26.10;;;9.80;;
67896;SDS011;54698;48.428;9.964;2022-12-05T04:10:39;33.90;;;11.55;;
67896;SDS011;54698;48.428;9.964;2022-12-05T04:13:07;34.93;;;11.27;;
67896;SDS011;54698;48.428;9.964;2022-12-05T04:15:33;31.00;;;11.90;;
67896;SDS011;54698;48.428;9.964;2022-12-05T04:17:59;29.57;;;11.43;;
67896;SDS011;54698;48.428;9.964;2022-12-05T04:20:26;32.97;;;12.53;;
67896;SDS011;54698;48.428;9.964;2022-12-05T04:22:58;32.43;;;11.43;;
67896;SDS011;54698;48.428;9.964;2022-12-05T04:25:25;38.00;;;12.37;;
67896;SDS011;54698;48.428;9.964;2022-12-05T04:27:58;35.45;;;12.05;;
67896;SDS011;54698;48.428;9.964;2022-12-05T04:30:38;29.37;;;12.13;;
67896;SDS011;54698;48.428;9.964;2022-12-05T04:33:08;35.07;;;13.33;;
67896;SDS011;54698;48.428;9.964;2022-12-05T04:35:40;34.05;;;12.95;;
67896;SDS011;54698;48.428;9.964;2022-12-05T04:38:14;41.33;;;14.27;;
67896;SDS011;54698;48.428;9.964;2022-12-05T04:40:47;38.33;;;12.43;;
67896;SDS011;54698;48.428;9.964;2022-12-05T04:43:17;37.60;;;12.40;;
67896;SDS011;54698;48.428;9.964;2022-12-05T04:45:45;32.33;;;12.27;;
67896;SDS011;54698;48.428;9.964;2022-12-05T04:48:13;36.83;;;12.40;;
67896;SDS011;54698;48.428;9.964;2022-12-05T04:50:41;34.40;;;11.40;;
67896;SDS011;54698;48.428;9.964;2022-12-05T04:53:10;34.83;;;12.90;;
67896;SDS011;54698;48.428;9.964;2022-12-05T04:55:40;37.47;;;13.27;;
67896;SDS011;54698;48.428;9.964;2022-12-05T04:58:11;39.67;;;13.37;;
67896;SDS011;54698;48.428;9.964;2022-12-05T05:00:43;38.60;;;13.80;;
67896;SDS011;54698;48.428;9.964;2022-12-05T05:03:18;31.30;;;13.47;;
67896;SDS011;54698;48.428;9.964;2022-12-05T05:05:50;42.83;;;13.03;;
67896;SDS011;54698;48.428;9.964;2022-12-05T05:08:21;40.40;;;14.83;;
67896;SDS011;54698;48.428;9.964;2022-12-05T05:11:02;37.00;;;12.97;;
67896;SDS011;54698;48.428;9.964;2022-12-05T05:13:33;35.20;;;13.30;;
67896;SDS011;54698;48.428;9.964;2022-12-05T05:15:59;37.80;;;14.47;;
67896;SDS011;54698;48.428;9.964;2022-12-05T05:18:24;36.33;;;14.10;;
67896;SDS011;54698;48.428;9.964;2022-12-05T05:20:50;32.10;;;14.30;;
67896;SDS011;54698;48.428;9.964;2022-12-05T05:23:16;43.03;;;13.10;;
67896;SDS011;54698;48.428;9.964;2022-12-05T05:25:43;41.23;;;15.33;;
67896;SDS011;54698;48.428;9.964;2022-12-05T05:28:09;35.30;;;13.73;;
67896;SDS011;54698;48.428;9.964;2022-12-05T05:30:35;40.77;;;15.20;;
67896;SDS011;54698;48.428;9.964;2022-12-05T05:33:01;39.53;;;15.00;;
67896;SDS011;54698;48.428;9.964;2022-12-05T05:35:27;42.33;;;15.40;;
67896;SDS011;54698;48.428;9.964;2022-12-05T05:37:52;44.43;;;15.27;;
67896;SDS011;54698;48.428;9.964;2022-12-05T05:40:18;34.67;;;14.73;;
67896;SDS011;54698;48.428;9.964;2022-12-05T05:42:46;28.97;;;14.40;;
67896;SDS011;54698;48.428;9.964;2022-12-05T05:45:14;34.03;;;13.83;;
67896;SDS011;54698;48.428;9.964;2022-12-05T05:47:40;32.53;;;11.93;;
67896;SDS011;54698;48.428;9.964;2022-12-05T05:50:07;30.30;;;11.53;;
67896;SDS011;54698;48.428;9.964;2022-12-05T05:52:34;36.23;;;12.03;;
67896;SDS011;54698;48.428;9.964;2022-12-05T05:55:01;27.87;;;12.00;;
67896;SDS011;54698;48.428;9.964;2022-12-05T05:57:29;27.43;;;9.80;;
67896;SDS011;54698;48.428;9.964;2022-12-05T05:59:56;27.53;;;13.33;;
67896;SDS011;54698;48.428;9.964;2022-12-05T06:02:22;32.33;;;10.73;;
67896;SDS011;54698;48.428;9.964;2022-12-05T06:04:48;27.57;;;10.57;;
67896;SDS011;54698;48.428;9.964;2022-12-05T06:07:14;24.10;;;10.30;;
67896;SDS011;54698;48.428;9.964;2022-12-05T06:09:40;23.33;;;9.33;;
67896;SDS011;54698;48.428;9.964;2022-12-05T06:12:06;30.27;;;10.60;;
67896;SDS011;54698;48.428;9.964;2022-12-05T06:14:31;31.53;;;10.97;;
67896;SDS011;54698;48.428;9.964;2022-12-05T06:16:59;28.63;;;10.23;;
67896;SDS011;54698;48.428;9.964;2022-12-05T06:19:25;25.27;;;9.70;;
67896;SDS011;54698;48.428;9.964;2022-12-05T06:21:51;31.40;;;11.43;;
67896;SDS011;54698;48.428;9.964;2022-12-05T06:24:16;24.67;;;9.50;;
67896;SDS011;54698;48.428;9.964;2022-12-05T06:26:42;26.60;;;10.97;;
67896;SDS011;54698;48.428;9.964;2022-12-05T06:29:08;27.00;;;9.53;;
67896;SDS011;54698;48.428;9.964;2022-12-05T06:31:34;30.37;;;11.60;;
67896;SDS011;54698;48.428;9.964;2022-12-05T06:34:02;23.60;;;10.10;;
67896;SDS011;54698;48.428;9.964;2022-12-05T06:36:28;32.47;;;10.37;;
67896;SDS011;54698;48.428;9.964;2022-12-05T06:38:55;28.40;;;11.53;;
67896;SDS011;54698;48.428;9.964;2022-12-05T06:41:21;28.17;;;9.47;;
67896;SDS011;54698;48.428;9.964;2022-12-05T06:43:47;26.13;;;10.37;;
67896;SDS011;54698;48.428;9.964;2022-12-05T06:46:13;24.87;;;9.63;;
67896;SDS011;54698;48.428;9.964;2022-12-05T06:48:40;31.63;;;11.83;;
67896;SDS011;54698;48.428;9.964;2022-12-05T06:51:09;34.47;;;10.77;;
67896;SDS011;54698;48.428;9.964;2022-12-05T06:53:36;30.93;;;13.47;;
67896;SDS011;54698;48.428;9.964;2022-12-05T06:56:03;34.30;;;11.00;;
67896;SDS011;54698;48.428;9.964;2022-12-05T06:58:31;30.80;;;12.27;;
67896;SDS011;54698;48.428;9.964;2022-12-05T07:00:57;29.67;;;10.87;;
67896;SDS011;54698;48.428;9.964;2022-12-05T07:03:22;30.50;;;11.57;;
67896;SDS011;54698;48.428;9.964;2022-12-05T07:05:48;33.77;;;12.23;;
67896;SDS011;54698;48.428;9.964;2022-12-05T07:08:15;36.60;;;12.43;;
67896;SDS011;54698;48.428;9.964;2022-12-05T07:10:41;34.10;;;13.80;;
67896;SDS011;54698;48.428;9.964;2022-12-05T07:13:14;33.60;;;11.23;;
67896;SDS011;54698;48.428;9.964;2022-12-05T07:15:40;32.33;;;14.77;;
67896;SDS011;54698;48.428;9.964;2022-12-05T07:18:06;33.67;;;12.73;;
67896;SDS011;54698;48.428;9.964;2022-12-05T07:20:32;25.90;;;11.97;;
67896;SDS011;54698;48.428;9.964;2022-12-05T07:22:57;38.97;;;14.53;;
67896;SDS011;54698;48.428;9.964;2022-12-05T07:25:25;39.87;;;13.97;;
67896;SDS011;54698;48.428;9.964;2022-12-05T07:27:50;32.43;;;12.87;;
67896;SDS011;54698;48.428;9.964;2022-12-05T07:30:16;31.87;;;14.00;;
67896;SDS011;54698;48.428;9.964;2022-12-05T07:32:42;38.13;;;14.23;;
67896;SDS011;54698;48.428;9.964;2022-12-05T07:35:08;28.47;;;12.07;;
67896;SDS011;54698;48.428;9.964;2022-12-05T07:37:34;37.07;;;14.53;;
67896;SDS011;54698;48.428;9.964;2022-12-05T07:40:00;28.07;;;12.07;;
67896;SDS011;54698;48.428;9.964;2022-12-05T07:42:27;28.43;;;13.60;;
67896;SDS011;54698;48.428;9.964;2022-12-05T07:44:52;30.33;;;11.83;;
67896;SDS011;54698;48.428;9.964;2022-12-05T07:47:18;37.00;;;13.93;;
67896;SDS011;54698;48.428;9.964;2022-12-05T07:49:44;30.67;;;13.20;;
67896;SDS011;54698;48.428;9.964;2022-12-05T07:52:10;33.73;;;14.23;;
67896;SDS011;54698;48.428;9.964;2022-12-05T07:54:36;34.90;;;13.90;;
67896;SDS011;54698;48.428;9.964;2022-12-05T07:57:02;29.50;;;13.10;;
67896;SDS011;54698;48.428;9.964;2022-12-05T07:59:29;29.90;;;12.17;;
67896;SDS011;54698;48.428;9.964;2022-12-05T08:01:55;31.27;;;12.60;;
67896;SDS011;54698;48.428;9.964;2022-12-05T08:04:20;29.73;;;13.20;;
67896;SDS011;54698;48.428;9.964;2022-12-05T08:06:46;29.73;;;12.37;;
67896;SDS011;54698;48.428;9.964;2022-12-05T08:09:12;32.00;;;13.33;;
67896;SDS011;54698;48.428;9.964;2022-12-05T08:11:38;32.87;;;13.07;;
67896;SDS011;54698;48.428;9.964;2022-12-05T08:14:04;29.03;;;12.67;;
67896;SDS011;54698;48.428;9.964;2022-12-05T08:16:32;33.63;;;13.90;;
67896;SDS011;54698;48.428;9.964;2022-12-05T08:18:59;34.43;;;13.07;;
67896;SDS011;54698;48.428;9.964;2022-12-05T08:21:27;30.70;;;13.07;;
67896;SDS011;54698;48.428;9.964;2022-12-05T08:23:53;33.77;;;14.77;;
67896;SDS011;54698;48.428;9.964;2022-12-05T08:26:21;32.57;;;12.57;;
67896;SDS011;54698;48.428;9.964;2022-12-05T08:28:49;28.63;;;12.93;;
67896;SDS011;54698;48.428;9.964;2022-12-05T08:31:18;32.50;;;15.07;;
67896;SDS011;54698;48.428;9.964;2022-12-05T08:33:46;36.03;;;15.60;;
67896;SDS011;54698;48.428;9.964;2022-12-05T08:36:12;29.80;;;11.93;;
67896;SDS011;54698;48.428;9.964;2022-12-05T08:38:39;29.00;;;13.33;;
67896;SDS011;54698;48.428;9.964;2022-12-05T08:41:07;33.13;;;13.87;;
67896;SDS011;54698;48.428;9.964;2022-12-05T08:43:35;29.93;;;13.03;;
67896;SDS011;54698;48.428;9.964;2022-12-05T08:46:01;35.07;;;12.83;;
67896;SDS011;54698;48.428;9.964;2022-12-05T08:48:27;32.20;;;12.77;;
67896;SDS011;54698;48.428;9.964;2022-12-05T08:50:58;33.43;;;13.07;;
67896;SDS011;54698;48.428;9.964;2022-12-05T08:53:29;32.28;;;13.73;;
67896;SDS011;54698;48.428;9.964;2022-12-05T08:55:58;29.53;;;13.80;;
67896;SDS011;54698;48.428;9.964;2022-12-05T08:58:25;32.67;;;12.53;;
67896;SDS011;54698;48.428;9.964;2022-12-05T09:00:51;34.10;;;12.37;;
67896;SDS011;54698;48.428;9.964;2022-12-05T09:03:16;35.63;;;13.20;;
67896;SDS011;54698;48.428;9.964;2022-12-05T09:05:42;28.07;;;13.27;;
67896;SDS011;54698;48.428;9.964;2022-12-05T09:08:09;24.67;;;11.83;;
67896;SDS011;54698;48.428;9.964;2022-12-05T09:10:36;33.67;;;12.97;;
67896;SDS011;54698;48.428;9.964;2022-12-05T09:13:02;27.13;;;10.83;;
67896;SDS011;54698;48.428;9.964;2022-12-05T09:15:28;29.07;;;11.50;;
67896;SDS011;54698;48.428;9.964;2022-12-05T09:17:53;31.70;;;13.10;;
67896;SDS011;54698;48.428;9.964;2022-12-05T09:20:19;25.40;;;12.37;;
67896;SDS011;54698;48.428;9.964;2022-12-05T09:22:45;35.37;;;12.67;;
67896;SDS011;54698;48.428;9.964;2022-12-05T09:25:12;30.77;;;12.00;;
67896;SDS011;54698;48.428;9.964;2022-12-05T09:27:38;30.53;;;13.13;;
67896;SDS011;54698;48.428;9.964;2022-12-05T09:30:04;29.77;;;13.87;;
67896;SDS011;54698;48.428;9.964;2022-12-05T09:32:32;29.80;;;13.30;;
67896;SDS011;54698;48.428;9.964;2022-12-05T09:34:57;28.90;;;11.70;;
67896;SDS011;54698;48.428;9.964;2022-12-05T09:37:23;28.23;;;11.87;;
67896;SDS011;54698;48.428;9.964;2022-12-05T09:39:49;28.57;;;11.73;;
67896;SDS011;54698;48.428;9.964;2022-12-05T09:42:26;28.40;;;12.47;;
67896;SDS011;54698;48.428;9.964;2022-12-05T09:45:14;26.67;;;12.37;;
67896;SDS011;54698;48.428;9.964;2022-12-05T09:47:52;29.13;;;12.73;;
67896;SDS011;54698;48.428;9.964;2022-12-05T09:50:24;27.70;;;11.90;;
67896;SDS011;54698;48.428;9.964;2022-12-05T09:53:03;24.83;;;11.97;;
67896;SDS011;54698;48.428;9.964;2022-12-05T09:55:38;24.03;;;10.00;;
67896;SDS011;54698;48.428;9.964;2022-12-05T09:58:24;23.67;;;10.70;;
67896;SDS011;54698;48.428;9.964;2022-12-05T10:00:57;23.50;;;9.90;;
67896;SDS011;54698;48.428;9.964;2022-12-05T10:03:28;24.43;;;11.13;;
67896;SDS011;54698;48.428;9.964;2022-12-05T10:06:07;21.87;;;10.57;;
67896;SDS011;54698;48.428;9.964;2022-12-05T10:08:40;24.07;;;10.50;;
67896;SDS011;54698;48.428;9.964;2022-12-05T10:11:22;21.67;;;9.63;;
67896;SDS011;54698;48.428;9.964;2022-12-05T10:13:59;19.80;;;8.53;;
67896;SDS011;54698;48.428;9.964;2022-12-05T10:16:34;19.93;;;9.67;;
67896;SDS011;54698;48.428;9.964;2022-12-05T10:19:08;21.52;;;8.25;;
67896;SDS011;54698;48.428;9.964;2022-12-05T10:21:38;20.50;;;9.20;;
67896;SDS011;54698;48.428;9.964;2022-12-05T10:24:14;21.07;;;8.77;;
67896;SDS011;54698;48.428;9.964;2022-12-05T10:26:43;23.80;;;9.43;;
67896;SDS011;54698;48.428;9.964;2022-12-05T10:29:17;18.83;;;9.67;;
67896;SDS011;54698;48.428;9.964;2022-12-05T10:31:51;19.43;;;8.00;;
67896;SDS011;54698;48.428;9.964;2022-12-05T10:34:24;16.73;;;7.33;;
67896;SDS011;54698;48.428;9.964;2022-12-05T10:36:56;19.23;;;8.10;;
67896;SDS011;54698;48.428;9.964;2022-12-05T10:39:29;16.70;;;7.37;;
67896;SDS011;54698;48.428;9.964;2022-12-05T10:41:54;19.00;;;7.07;;
67896;SDS011;54698;48.428;9.964;2022-12-05T10:44:21;22.97;;;8.67;;
67896;SDS011;54698;48.428;9.964;2022-12-05T10:46:47;19.33;;;7.53;;
67896;SDS011;54698;48.428;9.964;2022-12-05T10:49:13;18.57;;;7.07;;
67896;SDS011;54698;48.428;9.964;2022-12-05T10:51:39;16.77;;;7.13;;
67896;SDS011;54698;48.428;9.964;2022-12-05T10:54:08;16.23;;;6.40;;
67896;SDS011;54698;48.428;9.964;2022-12-05T10:56:42;17.00;;;7.07;;
67896;SDS011;54698;48.428;9.964;2022-12-05T10:59:10;17.67;;;7.77;;
67896;SDS011;54698;48.428;9.964;2022-12-05T11:01:43;18.43;;;7.27;;
67896;SDS011;54698;48.428;9.964;2022-12-05T11:04:19;18.17;;;8.47;;
67896;SDS011;54698;48.428;9.964;2022-12-05T11:06:53;14.57;;;6.87;;
67896;SDS011;54698;48.428;9.964;2022-12-05T11:09:23;15.43;;;6.47;;
67896;SDS011;54698;48.428;9.964;2022-12-05T11:12:05;14.43;;;7.40;;
67896;SDS011;54698;48.428;9.964;2022-12-05T11:14:52;15.27;;;6.47;;
67896;SDS011;54698;48.428;9.964;2022-12-05T11:17:23;17.03;;;6.97;;
67896;SDS011;54698;48.428;9.964;2022-12-05T11:19:51;12.57;;;5.40;;
67896;SDS011;54698;48.428;9.964;2022-12-05T11:22:17;12.03;;;5.60;;
67896;SDS011;54698;48.428;9.964;2022-12-05T11:24:43;15.80;;;7.73;;
67896;SDS011;54698;48.428;9.964;2022-12-05T11:29:59;12.30;;;6.13;;
67896;SDS011;54698;48.428;9.964;2022-12-05T11:34:57;14.73;;;5.47;;
67896;SDS011;54698;48.428;9.964;2022-12-05T11:37:36;12.77;;;4.97;;
67896;SDS011;54698;48.428;9.964;2022-12-05T11:40:11;9.03;;;3.90;;
67896;SDS011;54698;48.428;9.964;2022-12-05T11:42:42;10.20;;;4.13;;
67896;SDS011;54698;48.428;9.964;2022-12-05T11:45:36;10.17;;;4.13;;
67896;SDS011;54698;48.428;9.964;2022-12-05T11:48:21;8.70;;;3.83;;
67896;SDS011;54698;48.428;9.964;2022-12-05T11:51:03;8.80;;;4.18;;
67896;SDS011;54698;48.428;9.964;2022-12-05T11:53:52;10.03;;;4.10;;
67896;SDS011;54698;48.428;9.964;2022-12-05T11:56:34;8.53;;;4.50;;
67896;SDS011;54698;48.428;9.964;2022-12-05T11:59:08;11.40;;;4.30;;
67896;SDS011;54698;48.428;9.964;2022-12-05T12:01:54;10.43;;;4.10;;
67896;SDS011;54698;48.428;9.964;2022-12-05T12:04:37;10.30;;;3.93;;
67896;SDS011;54698;48.428;9.964;2022-12-05T12:07:24;7.88;;;3.60;;
67896;SDS011;54698;48.428;9.964;2022-12-05T12:10:10;9.23;;;3.87;;
67896;SDS011;54698;48.428;9.964;2022-12-05T12:12:49;10.00;;;3.47;;
67896;SDS011;54698;48.428;9.964;2022-12-05T12:18:21;8.97;;;3.77;;
67896;SDS011;54698;48.428;9.964;2022-12-05T12:21:15;9.40;;;4.15;;
67896;SDS011;54698;48.428;9.964;2022-12-05T12:23:46;8.47;;;3.63;;
67896;SDS011;54698;48.428;9.964;2022-12-05T12:26:28;9.05;;;4.97;;
67896;SDS011;54698;48.428;9.964;2022-12-05T12:29:08;9.17;;;4.00;;
67896;SDS011;54698;48.428;9.964;2022-12-05T12:31:48;9.23;;;3.90;;
67896;SDS011;54698;48.428;9.964;2022-12-05T12:34:28;8.13;;;3.73;;
67896;SDS011;54698;48.428;9.964;2022-12-05T12:37:19;10.20;;;4.03;;
67896;SDS011;54698;48.428;9.964;2022-12-05T12:39:59;9.23;;;3.50;;
67896;SDS011;54698;48.428;9.964;2022-12-05T12:42:38;8.70;;;3.87;;
67896;SDS011;54698;48.428;9.964;2022-12-05T12:45:19;9.77;;;4.07;;
67896;SDS011;54698;48.428;9.964;2022-12-05T12:48:01;9.00;;;4.03;;
67896;SDS011;54698;48.428;9.964;2022-12-05T12:50:37;9.83;;;3.87;;
67896;SDS011;54698;48.428;9.964;2022-12-05T12:53:21;10.17;;;4.97;;
67896;SDS011;54698;48.428;9.964;2022-12-05T12:56:01;7.82;;;4.65;;
67896;SDS011;54698;48.428;9.964;2022-12-05T12:58:43;7.97;;;3.77;;
67896;SDS011;54698;48.428;9.964;2022-12-05T13:01:16;9.10;;;3.90;;
67896;SDS011;54698;48.428;9.964;2022-12-05T13:03:56;7.83;;;3.67;;
67896;SDS011;54698;48.428;9.964;2022-12-05T13:06:25;9.30;;;4.43;;
67896;SDS011;54698;48.428;9.964;2022-12-05T13:08:59;8.77;;;4.15;;
67896;SDS011;54698;48.428;9.964;2022-12-05T13:11:34;7.82;;;4.00;;
67896;SDS011;54698;48.428;9.964;2022-12-05T13:14:02;7.43;;;4.13;;
67896;SDS011;54698;48.428;9.964;2022-12-05T13:16:38;8.23;;;4.70;;
67896;SDS011;54698;48.428;9.964;2022-12-05T13:19:06;9.13;;;4.40;;
67896;SDS011;54698;48.428;9.964;2022-12-05T13:21:48;7.87;;;3.90;;
67896;SDS011;54698;48.428;9.964;2022-12-05T13:24:15;8.17;;;4.23;;
67896;SDS011;54698;48.428;9.964;2022-12-05T13:26:45;9.77;;;3.53;;
67896;SDS011;54698;48.428;9.964;2022-12-05T13:29:17;9.40;;;4.07;;
67896;SDS011;54698;48.428;9.964;2022-12-05T13:31:46;6.82;;;3.63;;
67896;SDS011;54698;48.428;9.964;2022-12-05T13:34:31;8.03;;;3.87;;
67896;SDS011;54698;48.428;9.964;2022-12-05T13:37:08;8.50;;;3.23;;
67896;SDS011;54698;48.428;9.964;2022-12-05T13:39:38;8.43;;;3.77;;
67896;SDS011;54698;48.428;9.964;2022-12-05T13:42:04;7.73;;;3.30;;
67896;SDS011;54698;48.428;9.964;2022-12-05T13:44:35;7.13;;;3.13;;
67896;SDS011;54698;48.428;9.964;2022-12-05T13:47:04;8.23;;;4.00;;
67896;SDS011;54698;48.428;9.964;2022-12-05T13:49:46;6.40;;;2.47;;
67896;SDS011;54698;48.428;9.964;2022-12-05T13:52:17;7.27;;;2.70;;
67896;SDS011;54698;48.428;9.964;2022-12-05T13:54:50;7.40;;;2.87;;
67896;SDS011;54698;48.428;9.964;2022-12-05T14:02:58;5.90;;;2.80;;
67896;SDS011;54698;48.428;9.964;2022-12-05T14:05:41;8.18;;;3.13;;
67896;SDS011;54698;48.428;9.964;2022-12-05T14:11:22;7.03;;;3.20;;
67896;SDS011;54698;48.428;9.964;2022-12-05T14:13:47;7.30;;;3.50;;
67896;SDS011;54698;48.428;9.964;2022-12-05T14:19:26;8.30;;;3.83;;
67896;SDS011;54698;48.428;9.964;2022-12-05T14:22:16;8.27;;;3.97;;
67896;SDS011;54698;48.428;9.964;2022-12-05T14:25:03;7.40;;;3.37;;
67896;SDS011;54698;48.428;9.964;2022-12-05T14:27:43;9.70;;;3.40;;
67896;SDS011;54698;48.428;9.964;2022-12-05T14:30:20;6.67;;;3.27;;
67896;SDS011;54698;48.428;9.964;2022-12-05T14:32:49;6.93;;;2.77;;
67896;SDS011;54698;48.428;9.964;2022-12-05T14:35:18;6.87;;;3.13;;
67896;SDS011;54698;48.428;9.964;2022-12-05T14:37:52;6.97;;;3.20;;
67896;SDS011;54698;48.428;9.964;2022-12-05T14:40:23;6.00;;;2.77;;
67896;SDS011;54698;48.428;9.964;2022-12-05T14:42:56;7.37;;;3.00;;
67896;SDS011;54698;48.428;9.964;2022-12-05T14:45:26;6.27;;;2.87;;
67896;SDS011;54698;48.428;9.964;2022-12-05T14:47:56;9.17;;;3.20;;
67896;SDS011;54698;48.428;9.964;2022-12-05T14:50:40;7.13;;;2.80;;
67896;SDS011;54698;48.428;9.964;2022-12-05T14:53:18;6.20;;;2.60;;
67896;SDS011;54698;48.428;9.964;2022-12-05T14:56:01;7.27;;;2.57;;
67896;SDS011;54698;48.428;9.964;2022-12-05T14:58:37;7.47;;;2.73;;
67896;SDS011;54698;48.428;9.964;2022-12-05T15:01:12;6.27;;;2.73;;
67896;SDS011;54698;48.428;9.964;2022-12-05T15:03:42;7.27;;;3.33;;
67896;SDS011;54698;48.428;9.964;2022-12-05T15:06:44;6.37;;;3.00;;
67896;SDS011;54698;48.428;9.964;2022-12-05T15:12:10;7.00;;;3.00;;
67896;SDS011;54698;48.428;9.964;2022-12-05T15:14:43;8.20;;;3.30;;
67896;SDS011;54698;48.428;9.964;2022-12-05T15:17:15;7.67;;;3.60;;
67896;SDS011;54698;48.428;9.964;2022-12-05T15:19:49;7.47;;;2.95;;
67896;SDS011;54698;48.428;9.964;2022-12-05T15:22:20;9.83;;;3.50;;
67896;SDS011;54698;48.428;9.964;2022-12-05T15:24:49;7.83;;;3.20;;